Time;durP1;ratioP1;P1;durP2;ratioP2;P2;SDS_P1;SDS_P2;PMS_P1;PMS_P2;Temp;Humidity;BMP_temperature;BMP_pressure;BME280_temperature;BME280_humidity;BME280_pressure;Samples;Min_cycle;Max_cycle;Signal;HPM_P1;HPM_P2
2024/03/08 00:00:23;;;;;;;35.00;18.25;;;3.20;99.90;;;;;;5093970;28;20035;-67
2024/03/08 00:02:50;;;;;;;39.25;17.38;;;3.10;99.90;;;;;;5094022;28;20537;-67
2024/03/08 00:05:18;;;;;;;40.35;18.90;;;3.20;99.90;;;;;;5094453;28;20044;-67
2024/03/08 00:07:43;;;;;;;40.40;20.08;;;3.10;99.90;;;;;;5094285;28;20051;-67
2024/03/08 00:10:12;;;;;;;33.00;18.50;;;3.10;99.90;;;;;;5093777;28;20032;-67
2024/03/08 00:12:42;;;;;;;33.35;18.48;;;3.10;99.90;;;;;;5093713;28;20043;-67
2024/03/08 00:15:13;;;;;;;42.22;19.45;;;3.00;99.90;;;;;;5093998;28;20093;-68
2024/03/08 00:17:40;;;;;;;34.40;18.83;;;3.10;99.90;;;;;;5093043;28;20044;-67
2024/03/08 00:20:08;;;;;;;35.13;19.00;;;3.00;99.90;;;;;;5093655;28;20036;-67
2024/03/08 00:22:38;;;;;;;38.20;19.38;;;3.00;99.90;;;;;;5092348;28;20162;-67
2024/03/08 00:25:05;;;;;;;35.80;20.10;;;3.10;99.90;;;;;;5092661;28;20500;-68
2024/03/08 00:27:31;;;;;;;33.70;19.17;;;3.00;99.90;;;;;;5093669;28;20040;-67
2024/03/08 00:29:57;;;;;;;37.78;19.35;;;3.00;99.90;;;;;;5093755;28;20394;-67
2024/03/08 00:32:27;;;;;;;42.97;21.25;;;2.90;99.90;;;;;;5093478;28;20051;-67
2024/03/08 00:34:56;;;;;;;38.10;20.83;;;3.00;99.90;;;;;;5093822;28;20041;-67
2024/03/08 00:37:21;;;;;;;42.25;19.95;;;3.00;99.90;;;;;;5093703;28;20040;-67
2024/03/08 00:39:51;;;;;;;37.83;21.67;;;3.00;99.90;;;;;;5093372;28;20040;-67
2024/03/08 00:42:17;;;;;;;41.75;21.58;;;3.00;99.90;;;;;;5093010;28;20380;-67
2024/03/08 00:44:43;;;;;;;38.28;20.05;;;2.90;99.90;;;;;;5093728;28;20090;-67
2024/03/08 00:47:09;;;;;;;48.08;22.15;;;2.90;99.90;;;;;;5093589;28;20040;-67
2024/03/08 00:49:37;;;;;;;40.85;21.05;;;3.00;99.90;;;;;;5093064;28;20438;-67
2024/03/08 00:52:06;;;;;;;38.38;20.83;;;2.80;99.90;;;;;;5092994;28;20128;-67
2024/03/08 00:54:32;;;;;;;37.72;21.00;;;2.90;99.90;;;;;;5093260;28;20040;-67
2024/03/08 00:56:58;;;;;;;39.35;20.65;;;2.90;99.90;;;;;;5093194;28;20376;-67
2024/03/08 00:59:24;;;;;;;36.40;19.98;;;2.90;99.90;;;;;;5092994;28;20123;-67
2024/03/08 01:01:49;;;;;;;41.53;21.30;;;2.90;99.90;;;;;;5092877;28;20043;-67
2024/03/08 01:04:15;;;;;;;43.75;21.83;;;2.80;99.90;;;;;;5093224;28;20035;-67
2024/03/08 01:06:42;;;;;;;39.90;20.17;;;2.80;99.90;;;;;;5091590;28;20471;-67
2024/03/08 01:09:09;;;;;;;43.22;21.35;;;2.90;99.90;;;;;;5092417;28;20488;-67
2024/03/08 01:11:34;;;;;;;44.75;21.67;;;2.90;99.90;;;;;;5092480;28;20039;-67
2024/03/08 01:14:01;;;;;;;46.30;22.45;;;2.80;99.90;;;;;;5093116;28;20166;-68
2024/03/08 01:16:26;;;;;;;40.30;21.48;;;2.90;99.90;;;;;;5092967;28;20108;-67
2024/03/08 01:18:52;;;;;;;39.33;22.42;;;2.80;99.90;;;;;;5092605;28;20550;-67
2024/03/08 01:21:18;;;;;;;42.90;20.55;;;2.80;99.90;;;;;;5091179;28;20047;-67
2024/03/08 01:23:43;;;;;;;40.58;21.92;;;2.80;99.90;;;;;;5092751;28;20466;-67
2024/03/08 01:26:09;;;;;;;41.90;23.15;;;2.80;99.90;;;;;;5092519;28;20067;-67
2024/03/08 01:28:35;;;;;;;40.25;20.63;;;2.70;99.90;;;;;;5092470;28;20035;-67
2024/03/08 01:31:00;;;;;;;37.90;20.80;;;2.80;99.90;;;;;;5092485;28;20047;-67
2024/03/08 01:33:27;;;;;;;42.38;21.48;;;2.80;99.90;;;;;;5092605;28;20492;-67
2024/03/08 01:35:53;;;;;;;45.15;22.23;;;2.80;99.90;;;;;;5090869;28;20048;-67
2024/03/08 01:38:21;;;;;;;44.47;22.98;;;2.80;99.90;;;;;;5092409;28;20047;-67
2024/03/08 01:40:47;;;;;;;41.55;20.85;;;2.80;99.90;;;;;;5091219;28;20553;-67
2024/03/08 01:43:28;;;;;;;40.83;21.90;;;2.80;99.90;;;;;;5090611;28;20097;-67
2024/03/08 01:45:55;;;;;;;43.85;21.95;;;2.70;99.90;;;;;;5091053;28;20496;-67
2024/03/08 01:48:24;;;;;;;39.22;20.67;;;2.80;99.90;;;;;;5092009;28;20051;-67
2024/03/08 01:50:51;;;;;;;42.80;21.77;;;2.80;99.90;;;;;;5092226;28;20043;-67
2024/03/08 01:53:18;;;;;;;43.15;21.20;;;2.80;99.90;;;;;;5091961;28;20039;-67
2024/03/08 01:55:47;;;;;;;43.38;22.00;;;2.70;99.90;;;;;;5092398;28;20451;-67
2024/03/08 01:58:15;;;;;;;39.65;21.13;;;2.70;99.90;;;;;;5090753;28;20066;-67
2024/03/08 02:00:43;;;;;;;42.38;22.73;;;2.70;99.90;;;;;;5092036;28;20449;-67
2024/03/08 02:03:10;;;;;;;38.55;20.38;;;2.70;99.90;;;;;;5091640;28;20040;-67
2024/03/08 02:05:37;;;;;;;40.83;22.55;;;2.70;99.90;;;;;;5090557;28;20040;-67
2024/03/08 02:08:07;;;;;;;37.75;20.77;;;2.70;99.90;;;;;;5090792;28;20111;-67
2024/03/08 02:10:33;;;;;;;40.08;20.65;;;2.60;99.90;;;;;;5091861;28;20078;-67
2024/03/08 02:13:02;;;;;;;43.92;22.13;;;2.70;99.90;;;;;;5091528;28;20170;-67
2024/03/08 02:15:55;;;;;;;40.08;21.27;;;2.60;99.90;;;;;;5091940;28;20039;-67
2024/03/08 02:18:21;;;;;;;37.92;19.48;;;2.70;99.90;;;;;;5091738;28;20666;-68
2024/03/08 02:20:49;;;;;;;37.47;19.67;;;2.70;99.90;;;;;;5092073;28;20115;-67
2024/03/08 02:23:14;;;;;;;40.47;21.05;;;2.60;99.90;;;;;;5091417;28;20096;-67
2024/03/08 02:25:42;;;;;;;39.45;20.10;;;2.60;99.90;;;;;;5091771;28;20118;-68
2024/03/08 02:28:12;;;;;;;38.10;20.17;;;2.70;99.90;;;;;;5090481;28;20080;-67
2024/03/08 02:30:38;;;;;;;37.85;19.95;;;2.50;99.90;;;;;;5091414;28;20039;-67
2024/03/08 02:33:09;;;;;;;35.65;20.67;;;2.60;99.90;;;;;;5091446;28;20036;-67
2024/03/08 02:35:35;;;;;;;38.88;19.75;;;2.60;99.90;;;;;;5090582;28;20043;-68
2024/03/08 02:38:01;;;;;;;36.20;19.55;;;2.60;99.90;;;;;;5091653;28;20078;-67
2024/03/08 02:40:27;;;;;;;35.63;19.88;;;2.60;99.90;;;;;;5091414;28;20036;-67
2024/03/08 02:42:52;;;;;;;33.90;18.48;;;2.50;99.90;;;;;;5089682;28;20400;-67
2024/03/08 02:45:18;;;;;;;35.65;19.17;;;2.50;99.90;;;;;;5091543;28;20032;-68
2024/03/08 02:47:44;;;;;;;35.42;19.75;;;2.60;99.90;;;;;;5092694;28;20074;-68
2024/03/08 02:50:10;;;;;;;36.20;19.33;;;2.60;99.90;;;;;;5095446;28;20028;-68
2024/03/08 02:52:35;;;;;;;38.67;18.35;;;2.60;99.90;;;;;;5095207;28;20040;-68
2024/03/08 02:55:02;;;;;;;36.03;18.48;;;2.60;99.90;;;;;;5095706;28;20051;-68
2024/03/08 02:57:27;;;;;;;32.95;17.70;;;2.60;99.90;;;;;;5095416;28;20040;-68
2024/03/08 02:59:56;;;;;;;33.72;18.50;;;2.60;99.90;;;;;;5095208;28;20032;-68
2024/03/08 03:02:23;;;;;;;35.50;18.95;;;2.50;99.90;;;;;;5095173;28;20065;-68
2024/03/08 03:04:49;;;;;;;32.20;17.42;;;2.50;99.90;;;;;;5095540;28;20416;-67
2024/03/08 03:07:15;;;;;;;37.33;18.65;;;2.50;99.90;;;;;;5095407;28;20047;-67
2024/03/08 03:09:40;;;;;;;33.72;17.80;;;2.50;99.90;;;;;;5095022;28;20051;-67
2024/03/08 03:12:08;;;;;;;37.60;19.80;;;2.50;99.90;;;;;;5093500;28;20040;-67
2024/03/08 03:14:38;;;;;;;39.53;18.80;;;2.50;99.90;;;;;;5095531;28;20032;-67
2024/03/08 03:17:04;;;;;;;40.05;19.33;;;2.50;99.90;;;;;;5095404;28;20044;-68
2024/03/08 03:19:30;;;;;;;32.22;17.88;;;2.50;99.90;;;;;;5094940;28;20058;-68
2024/03/08 03:21:56;;;;;;;31.25;18.08;;;2.40;99.90;;;;;;5093422;28;20044;-68
2024/03/08 03:24:23;;;;;;;36.05;17.88;;;2.30;99.90;;;;;;5095095;28;20092;-68
2024/03/08 03:26:49;;;;;;;33.72;18.73;;;2.40;99.90;;;;;;5094893;28;20044;-68
2024/03/08 03:29:16;;;;;;;37.03;18.13;;;2.40;99.90;;;;;;5094876;28;20044;-68
2024/03/08 03:31:46;;;;;;;35.85;17.85;;;2.40;99.90;;;;;;5093211;28;20047;-68
2024/03/08 03:34:12;;;;;;;34.65;19.15;;;2.30;99.90;;;;;;5094956;28;20039;-68
2024/03/08 03:36:42;;;;;;;36.63;20.65;;;2.40;99.90;;;;;;5094929;28;20043;-68
2024/03/08 03:39:12;;;;;;;33.58;17.95;;;2.40;99.90;;;;;;5094408;28;20066;-68
2024/03/08 03:41:38;;;;;;;34.17;18.98;;;2.40;99.90;;;;;;5093100;28;20576;-68
2024/03/08 03:44:08;;;;;;;34.05;18.23;;;2.30;99.90;;;;;;5093430;28;20419;-68
2024/03/08 03:46:34;;;;;;;34.90;18.83;;;2.30;99.90;;;;;;5094480;28;20411;-68
2024/03/08 03:49:00;;;;;;;34.72;18.10;;;2.20;99.90;;;;;;5093080;28;20032;-68
2024/03/08 03:51:26;;;;;;;36.65;19.52;;;2.30;99.90;;;;;;5094149;28;20600;-68
2024/03/08 03:53:52;;;;;;;33.10;18.10;;;2.10;99.90;;;;;;5076304;28;20527;-68
2024/03/08 03:56:18;;;;;;;38.75;19.52;;;2.20;99.90;;;;;;5093085;28;20048;-68
2024/03/08 03:58:44;;;;;;;39.38;18.20;;;2.10;99.90;;;;;;5094013;28;20040;-68
2024/03/08 04:01:10;;;;;;;30.20;17.05;;;2.10;99.90;;;;;;5092831;28;20061;-67
2024/03/08 04:03:36;;;;;;;32.53;18.60;;;2.20;99.90;;;;;;5094506;28;20439;-67
2024/03/08 04:06:06;;;;;;;37.20;17.17;;;2.10;99.90;;;;;;5094211;28;20051;-67
2024/03/08 04:08:34;;;;;;;36.03;19.40;;;2.20;99.90;;;;;;5092542;28;20092;-67
2024/03/08 04:11:00;;;;;;;32.60;18.70;;;2.10;99.90;;;;;;5094167;28;20040;-67
2024/03/08 04:13:26;;;;;;;33.50;18.50;;;2.20;99.90;;;;;;5094147;28;20035;-67
2024/03/08 04:15:52;;;;;;;40.30;19.65;;;2.20;99.90;;;;;;5094212;28;20108;-68
2024/03/08 04:18:19;;;;;;;30.73;17.35;;;2.10;99.90;;;;;;5094087;28;20441;-68
2024/03/08 04:20:45;;;;;;;31.88;17.65;;;2.10;99.90;;;;;;5092508;28;20039;-68
2024/03/08 04:23:10;;;;;;;37.38;17.95;;;2.10;99.90;;;;;;5093739;28;20055;-68
2024/03/08 04:25:36;;;;;;;38.58;19.52;;;2.10;99.90;;;;;;5092624;28;20036;-68
2024/03/08 04:28:02;;;;;;;31.25;17.30;;;2.10;99.90;;;;;;5093885;28;20078;-68
2024/03/08 04:30:28;;;;;;;34.67;18.10;;;2.10;99.90;;;;;;5093727;28;20083;-68
2024/03/08 04:32:54;;;;;;;37.08;18.83;;;2.10;99.90;;;;;;5093423;28;20044;-68
2024/03/08 04:35:20;;;;;;;36.28;21.10;;;2.00;99.90;;;;;;5093721;28;20376;-68
2024/03/08 04:37:46;;;;;;;34.10;16.27;;;2.00;99.90;;;;;;5093654;28;20569;-68
2024/03/08 04:40:12;;;;;;;33.08;17.40;;;2.00;99.90;;;;;;5092286;28;20047;-68
2024/03/08 04:42:40;;;;;;;37.28;18.00;;;2.00;99.90;;;;;;5093212;28;20488;-68
2024/03/08 04:45:07;;;;;;;31.10;17.58;;;2.00;99.90;;;;;;5093617;28;20061;-68
2024/03/08 04:47:33;;;;;;;38.10;18.42;;;2.00;99.90;;;;;;5093463;28;20389;-68
2024/03/08 04:49:59;;;;;;;31.92;17.52;;;2.00;99.90;;;;;;5093086;28;20035;-68
2024/03/08 04:52:25;;;;;;;33.65;18.98;;;1.90;99.90;;;;;;5093177;28;20032;-68
2024/03/08 04:54:51;;;;;;;30.95;16.17;;;2.00;99.90;;;;;;5093420;28;20066;-67
2024/03/08 04:57:20;;;;;;;33.97;17.70;;;1.90;99.90;;;;;;5093327;28;20040;-67
2024/03/08 04:59:46;;;;;;;32.67;18.33;;;1.90;99.90;;;;;;5092876;28;20515;-67
2024/03/08 05:02:11;;;;;;;36.33;18.08;;;1.90;99.90;;;;;;5092816;28;20044;-67
2024/03/08 05:04:37;;;;;;;35.13;18.90;;;1.90;99.90;;;;;;5093126;28;20457;-67
2024/03/08 05:07:03;;;;;;;32.90;17.83;;;1.80;99.90;;;;;;5093386;28;20523;-67
2024/03/08 05:09:31;;;;;;;36.45;18.00;;;1.90;99.90;;;;;;5092879;28;20036;-66
2024/03/08 05:11:59;;;;;;;40.22;19.27;;;1.80;99.90;;;;;;5092161;28;20032;-67
2024/03/08 05:14:25;;;;;;;35.83;20.77;;;1.90;99.90;;;;;;5093435;28;20124;-67
2024/03/08 05:16:50;;;;;;;35.30;18.13;;;1.80;99.90;;;;;;5093259;28;20067;-67
2024/03/08 05:19:17;;;;;;;31.08;17.38;;;1.80;99.90;;;;;;5092951;28;20075;-67
2024/03/08 05:21:47;;;;;;;34.13;17.65;;;1.80;99.90;;;;;;5092942;28;20048;-67
2024/03/08 05:24:14;;;;;;;33.70;17.33;;;1.80;99.90;;;;;;5093027;28;20097;-67
2024/03/08 05:26:40;;;;;;;36.08;17.85;;;1.80;99.90;;;;;;5092645;28;20556;-67
2024/03/08 05:29:06;;;;;;;40.55;18.35;;;1.70;99.90;;;;;;5092509;28;20036;-67
2024/03/08 05:31:42;;;;;;;36.95;17.95;;;1.70;99.90;;;;;;5092214;28;20373;-67
2024/03/08 05:34:09;;;;;;;38.47;18.05;;;1.70;99.90;;;;;;5092917;28;20040;-67
2024/03/08 05:36:35;;;;;;;31.95;17.38;;;1.70;99.90;;;;;;5092745;28;20040;-67
2024/03/08 05:39:01;;;;;;;32.92;17.65;;;1.70;99.90;;;;;;5092374;28;20042;-67
2024/03/08 05:41:26;;;;;;;34.17;17.50;;;1.70;99.90;;;;;;5092142;28;20047;-67
2024/03/08 05:43:53;;;;;;;32.85;17.88;;;1.70;99.90;;;;;;5092503;28;20438;-67
2024/03/08 05:46:19;;;;;;;32.40;17.30;;;1.70;99.90;;;;;;5090904;28;20040;-67
2024/03/08 05:48:45;;;;;;;35.80;18.85;;;1.60;99.90;;;;;;5092249;28;20035;-67
2024/03/08 05:51:12;;;;;;;35.60;19.08;;;1.60;99.90;;;;;;5091744;28;20050;-67
2024/03/08 05:53:37;;;;;;;32.92;17.75;;;1.60;99.90;;;;;;5092356;28;20039;-67
2024/03/08 05:56:03;;;;;;;28.67;16.13;;;1.60;99.90;;;;;;5092276;28;20567;-67
2024/03/08 05:58:32;;;;;;;35.40;16.45;;;1.60;99.90;;;;;;5091706;28;20499;-67
2024/03/08 06:00:57;;;;;;;35.25;18.30;;;1.60;99.90;;;;;;5091919;28;20089;-67
2024/03/08 06:03:23;;;;;;;33.13;16.92;;;1.60;99.90;;;;;;5091630;28;20108;-67
2024/03/08 06:05:49;;;;;;;36.75;19.42;;;1.50;99.90;;;;;;5091966;28;20110;-67
2024/03/08 06:08:15;;;;;;;33.55;18.25;;;1.60;99.90;;;;;;5091457;28;20487;-67
2024/03/08 06:10:41;;;;;;;32.20;17.73;;;1.50;99.90;;;;;;5091935;28;20044;-67
2024/03/08 06:13:06;;;;;;;34.45;16.42;;;1.50;99.90;;;;;;5090308;28;20039;-67
2024/03/08 06:15:32;;;;;;;35.47;17.83;;;1.60;99.90;;;;;;5091622;28;20040;-67
2024/03/08 06:17:58;;;;;;;29.45;16.60;;;1.50;99.90;;;;;;5092033;28;20043;-66
2024/03/08 06:20:26;;;;;;;32.33;19.00;;;1.50;99.90;;;;;;5091554;28;20477;-67
2024/03/08 06:22:52;;;;;;;33.95;18.15;;;1.50;99.90;;;;;;5091568;28;20162;-67
2024/03/08 06:25:18;;;;;;;30.70;15.80;;;1.60;99.90;;;;;;5091864;28;20093;-67
2024/03/08 06:27:43;;;;;;;31.10;17.52;;;1.60;99.90;;;;;;5091811;28;20043;-67
2024/03/08 06:30:10;;;;;;;35.75;17.33;;;1.60;99.90;;;;;;5091768;28;20085;-67
2024/03/08 06:32:37;;;;;;;38.72;19.05;;;1.60;99.90;;;;;;5090337;28;20028;-67
2024/03/08 06:35:06;;;;;;;36.85;18.35;;;1.70;99.90;;;;;;5091802;28;20115;-67
2024/03/08 06:37:34;;;;;;;33.33;18.08;;;1.70;99.90;;;;;;5091672;28;20044;-67
2024/03/08 06:40:01;;;;;;;35.50;17.60;;;1.70;99.90;;;;;;5091295;28;20036;-67
2024/03/08 06:42:28;;;;;;;34.28;17.55;;;1.60;99.90;;;;;;5091161;28;20190;-67
2024/03/08 06:44:55;;;;;;;36.33;17.50;;;1.60;99.90;;;;;;5090403;28;20136;-66
2024/03/08 06:47:22;;;;;;;29.80;17.02;;;1.70;99.90;;;;;;5091719;28;20044;-66
2024/03/08 06:49:49;;;;;;;35.80;17.27;;;1.70;99.90;;;;;;5091357;28;20040;-67
2024/03/08 06:52:15;;;;;;;34.33;17.13;;;1.80;99.90;;;;;;5090991;28;20047;-67
2024/03/08 06:54:40;;;;;;;32.80;18.38;;;1.90;99.90;;;;;;5091434;28;20045;-67
2024/03/08 06:57:06;;;;;;;35.75;17.40;;;1.80;99.90;;;;;;5091283;28;20043;-67
2024/03/08 06:59:32;;;;;;;35.28;17.73;;;1.90;99.90;;;;;;5091282;28;20040;-66
2024/03/08 07:01:59;;;;;;;34.80;17.75;;;2.00;99.90;;;;;;5090851;28;20495;-67
2024/03/08 07:04:28;;;;;;;35.55;17.80;;;2.10;99.90;;;;;;5091337;28;20040;-67
2024/03/08 07:06:54;;;;;;;33.17;16.38;;;2.20;99.90;;;;;;5091278;28;20061;-67
2024/03/08 07:09:20;;;;;;;32.28;17.60;;;2.30;99.90;;;;;;5090955;28;20040;-67
2024/03/08 07:11:46;;;;;;;30.25;16.80;;;2.40;99.90;;;;;;5090756;28;20047;-67
2024/03/08 07:14:15;;;;;;;31.92;17.20;;;2.50;99.90;;;;;;5091409;28;20161;-66
2024/03/08 07:16:41;;;;;;;37.30;17.92;;;2.50;99.90;;;;;;5091429;28;20036;-67
2024/03/08 07:19:07;;;;;;;32.10;17.35;;;2.60;99.90;;;;;;5091117;28;20047;-67
2024/03/08 07:21:32;;;;;;;36.78;18.67;;;2.60;99.90;;;;;;5090826;28;20036;-67
2024/03/08 07:26:27;;;;;;;31.17;16.85;;;2.80;99.90;;;;;;5090917;28;20048;-67
2024/03/08 07:28:54;;;;;;;34.33;19.02;;;2.90;99.90;;;;;;5090793;28;20040;-67
2024/03/08 07:33:53;;;;;;;35.67;17.33;;;3.00;99.90;;;;;;5092351;28;20414;-67
2024/03/08 07:36:19;;;;;;;33.45;17.38;;;3.10;99.90;;;;;;5094867;28;20091;-67
2024/03/08 07:38:48;;;;;;;30.92;17.02;;;3.10;99.90;;;;;;5094546;28;20044;-67
2024/03/08 07:41:15;;;;;;;31.02;18.35;;;3.20;99.90;;;;;;5094571;28;20040;-67
2024/03/08 07:43:40;;;;;;;32.72;16.70;;;3.30;99.90;;;;;;5094943;28;20036;-66
2024/03/08 07:46:06;;;;;;;30.83;16.63;;;3.40;99.90;;;;;;5094652;28;20393;-66
2024/03/08 07:48:32;;;;;;;35.42;18.10;;;3.40;99.90;;;;;;5094380;28;20396;-67
2024/03/08 07:50:57;;;;;;;36.60;16.83;;;3.50;99.90;;;;;;5094694;28;20135;-66
2024/03/08 07:53:26;;;;;;;34.05;17.90;;;3.60;99.90;;;;;;5094094;28;20093;-66
2024/03/08 07:55:52;;;;;;;29.17;18.48;;;3.50;99.90;;;;;;5094857;28;20449;-66
2024/03/08 07:58:18;;;;;;;36.28;17.48;;;3.70;99.90;;;;;;5094402;28;20088;-66
2024/03/08 08:00:43;;;;;;;37.25;19.23;;;3.70;99.90;;;;;;5094297;28;20040;-66
2024/03/08 08:03:09;;;;;;;33.05;19.60;;;3.90;99.90;;;;;;5093996;28;20032;-68
2024/03/08 08:05:35;;;;;;;31.95;17.95;;;4.00;99.90;;;;;;5094357;28;20098;-67
2024/03/08 08:08:06;;;;;;;34.13;18.45;;;3.90;99.90;;;;;;5092715;28;20470;-66
2024/03/08 08:10:34;;;;;;;27.85;16.92;;;4.00;99.90;;;;;;5094134;28;20059;-66
2024/03/08 08:12:59;;;;;;;33.33;19.00;;;4.10;99.90;;;;;;5093924;28;20039;-67
2024/03/08 08:15:25;;;;;;;36.25;17.77;;;4.20;99.90;;;;;;5094050;28;20403;-66
2024/03/08 08:17:54;;;;;;;33.53;18.75;;;4.20;99.90;;;;;;5094101;28;20093;-67
2024/03/08 08:20:19;;;;;;;33.67;19.20;;;4.30;99.90;;;;;;5093803;28;20047;-66
2024/03/08 08:22:45;;;;;;;33.15;17.85;;;4.40;99.90;;;;;;5093506;28;20032;-67
2024/03/08 08:25:15;;;;;;;29.80;18.60;;;4.50;99.90;;;;;;5106406;28;20039;-66
2024/03/08 08:27:42;;;;;;;32.58;18.83;;;4.40;99.90;;;;;;5114458;28;20411;-68
2024/03/08 08:30:09;;;;;;;31.25;18.73;;;4.50;99.90;;;;;;5114115;28;20039;-67
2024/03/08 08:32:44;;;;;;;31.88;17.55;;;4.60;99.90;;;;;;5113800;28;20483;-67
2024/03/08 08:35:11;;;;;;;31.75;18.63;;;4.70;99.90;;;;;;5113993;28;20042;-67
2024/03/08 08:37:39;;;;;;;32.55;18.40;;;4.50;99.90;;;;;;5114540;28;20047;-67
2024/03/08 08:40:09;;;;;;;34.40;19.73;;;4.50;99.90;;;;;;5114067;28;20110;-67
2024/03/08 08:42:38;;;;;;;31.00;18.67;;;4.60;99.90;;;;;;5113659;28;20096;-67
2024/03/08 08:45:09;;;;;;;39.42;20.17;;;4.50;99.90;;;;;;5112998;28;20114;-67
2024/03/08 08:47:38;;;;;;;32.25;20.05;;;4.70;99.90;;;;;;5113724;28;20119;-67
2024/03/08 08:50:05;;;;;;;30.23;18.00;;;4.60;99.90;;;;;;5113749;28;20032;-67
2024/03/08 08:52:31;;;;;;;29.92;17.08;;;4.70;99.90;;;;;;5112088;28;20036;-66
2024/03/08 08:54:57;;;;;;;33.35;18.98;;;4.70;99.90;;;;;;5113773;28;20483;-66
2024/03/08 08:57:23;;;;;;;34.00;19.10;;;4.70;99.90;;;;;;5113828;28;20142;-67
2024/03/08 08:59:50;;;;;;;35.75;17.98;;;4.60;99.90;;;;;;5112234;28;20032;-67
2024/03/08 09:02:16;;;;;;;34.00;19.40;;;4.60;99.90;;;;;;5113125;28;20050;-67
2024/03/08 09:04:43;;;;;;;30.75;17.80;;;4.60;99.90;;;;;;5114054;28;20039;-67
2024/03/08 09:07:09;;;;;;;31.63;18.67;;;4.50;99.90;;;;;;5113684;28;20043;-67
2024/03/08 09:09:36;;;;;;;32.72;19.55;;;4.50;99.90;;;;;;5113045;28;20499;-67
2024/03/08 09:12:01;;;;;;;33.08;18.83;;;4.50;99.90;;;;;;5113106;28;20043;-66
2024/03/08 09:14:27;;;;;;;32.40;19.00;;;4.40;99.90;;;;;;5113384;28;20032;-66
2024/03/08 09:16:53;;;;;;;35.22;19.83;;;4.50;99.90;;;;;;5113254;28;20588;-67
2024/03/08 09:19:19;;;;;;;31.50;18.85;;;4.50;99.90;;;;;;5113149;27;20640;-67
2024/03/08 09:21:45;;;;;;;34.30;19.90;;;4.50;99.90;;;;;;5112804;28;20731;-67
2024/03/08 09:24:12;;;;;;;42.15;21.63;;;4.50;99.90;;;;;;5113315;28;20044;-67
2024/03/08 09:26:38;;;;;;;34.65;20.15;;;4.40;99.90;;;;;;5090214;27;20036;-67
2024/03/08 09:29:05;;;;;;;33.00;19.73;;;4.50;99.90;;;;;;5084222;28;20153;-67
2024/03/08 09:31:30;;;;;;;35.33;19.90;;;4.60;99.90;;;;;;5085042;28;20036;-67
2024/03/08 09:33:56;;;;;;;33.97;20.10;;;4.60;99.90;;;;;;5092646;28;20036;-67
2024/03/08 09:36:21;;;;;;;37.47;21.42;;;4.70;99.90;;;;;;5092698;28;20043;-67
2024/03/08 09:38:48;;;;;;;35.08;19.75;;;4.60;99.90;;;;;;5092432;28;20174;-66
2024/03/08 09:41:14;;;;;;;38.47;20.98;;;4.70;99.90;;;;;;5092090;28;20055;-67
2024/03/08 09:43:40;;;;;;;35.80;21.92;;;4.70;99.90;;;;;;5092477;28;20032;-66
2024/03/08 09:46:07;;;;;;;32.72;19.10;;;4.70;99.90;;;;;;5092318;28;20054;-67
2024/03/08 09:48:34;;;;;;;34.28;19.63;;;4.80;99.90;;;;;;5092228;28;20040;-66
2024/03/08 09:51:00;;;;;;;38.22;20.23;;;4.80;99.90;;;;;;5092133;28;20498;-67
2024/03/08 09:53:26;;;;;;;36.10;20.42;;;4.80;99.90;;;;;;5090852;28;20046;-66
2024/03/08 09:55:51;;;;;;;33.92;21.48;;;4.80;99.90;;;;;;5092317;28;20075;-67
2024/03/08 10:00:58;;;;;;;31.55;18.23;;;4.80;99.90;;;;;;5092256;28;20202;-67
2024/03/08 10:03:27;;;;;;;33.60;19.77;;;4.80;99.90;;;;;;5092033;28;20122;-66
2024/03/08 10:05:56;;;;;;;31.85;19.65;;;4.80;99.90;;;;;;5092162;28;20039;-67
2024/03/08 10:08:22;;;;;;;41.78;20.35;;;4.80;99.90;;;;;;5091594;28;20048;-66
2024/03/08 10:10:49;;;;;;;32.60;20.23;;;4.90;99.90;;;;;;5091248;28;20453;-67
2024/03/08 10:13:16;;;;;;;32.40;18.35;;;5.00;99.90;;;;;;5090942;28;20044;-67
2024/03/08 10:15:42;;;;;;;36.63;20.35;;;5.10;99.90;;;;;;5090076;28;20047;-66
2024/03/08 10:18:08;;;;;;;37.05;20.77;;;5.10;99.90;;;;;;5087936;28;20036;-67
2024/03/08 10:20:34;;;;;;;37.83;19.85;;;5.10;99.90;;;;;;5081005;28;20523;-67
2024/03/08 10:23:04;;;;;;;35.67;20.98;;;5.20;99.90;;;;;;5079003;28;20037;-67
2024/03/08 10:25:34;;;;;;;35.92;19.95;;;5.20;99.90;;;;;;5082140;28;20491;-67
2024/03/08 10:28:04;;;;;;;37.08;19.92;;;5.30;99.90;;;;;;5091071;28;20040;-67
2024/03/08 10:30:29;;;;;;;38.15;21.52;;;5.30;99.90;;;;;;5090799;28;20051;-67
2024/03/08 10:32:55;;;;;;;36.78;20.45;;;5.40;99.90;;;;;;5090491;28;20029;-67
2024/03/08 10:35:22;;;;;;;32.47;19.83;;;5.40;99.90;;;;;;5090981;28;20062;-67
2024/03/08 10:37:56;;;;;;;36.55;20.10;;;5.40;99.90;;;;;;5090942;28;20535;-67
2024/03/08 10:40:23;;;;;;;31.70;19.17;;;5.50;99.90;;;;;;5090842;28;20072;-66
2024/03/08 10:42:59;;;;;;;35.25;23.48;;;5.50;99.90;;;;;;5089086;28;20048;-67
2024/03/08 10:45:56;;;;;;;33.75;20.15;;;5.50;99.90;;;;;;5090810;28;20080;-67
2024/03/08 10:48:31;;;;;;;34.10;21.10;;;5.50;99.90;;;;;;5089728;28;20557;-66
2024/03/08 10:51:02;;;;;;;38.05;20.20;;;5.50;99.90;;;;;;5089755;28;20036;-67
2024/03/08 10:53:29;;;;;;;31.48;19.80;;;5.50;99.90;;;;;;5090713;28;20032;-67
2024/03/08 10:55:57;;;;;;;39.13;21.00;;;5.60;99.90;;;;;;5090544;28;20499;-67
2024/03/08 10:58:27;;;;;;;33.28;20.75;;;5.60;99.90;;;;;;5072142;28;20044;-67
2024/03/08 11:00:54;;;;;;;37.15;21.25;;;5.70;99.90;;;;;;5090537;28;20036;-67
2024/03/08 11:03:45;;;;;;;35.72;19.17;;;5.80;99.90;;;;;;5090192;28;20115;-67
2024/03/08 11:06:18;;;;;;;37.30;21.75;;;5.90;99.90;;;;;;5090394;28;20043;-67
2024/03/08 11:08:46;;;;;;;36.63;20.80;;;6.00;99.90;;;;;;5051787;28;1080730;-68
2024/03/08 11:11:34;;;;;;;38.15;21.20;;;6.00;99.90;;;;;;5095026;28;20067;-68
2024/03/08 11:14:04;;;;;;;40.92;21.75;;;6.00;99.90;;;;;;5094357;28;20036;-67
2024/03/08 11:16:31;;;;;;;35.15;22.58;;;6.10;99.90;;;;;;5095256;28;20512;-67
2024/03/08 11:19:10;;;;;;;35.13;20.73;;;6.10;99.90;;;;;;5094967;28;20044;-68
2024/03/08 11:21:39;;;;;;;35.15;21.85;;;6.20;99.90;;;;;;5093617;28;20036;-68
2024/03/08 11:24:16;;;;;;;33.30;19.50;;;6.20;99.90;;;;;;5076991;28;20032;-68
2024/03/08 11:26:44;;;;;;;33.75;21.00;;;6.20;99.90;;;;;;5095227;28;20096;-68
2024/03/08 11:29:29;;;;;;;34.70;21.40;;;6.30;99.90;;;;;;5094646;28;20040;-68
2024/03/08 11:32:12;;;;;;;33.42;22.48;;;6.40;99.90;;;;;;5094618;28;20047;-67
2024/03/08 11:34:43;;;;;;;34.30;20.45;;;6.40;99.90;;;;;;5095217;28;20075;-67
2024/03/08 11:37:20;;;;;;;37.22;21.65;;;6.40;99.90;;;;;;5093771;28;20077;-68
2024/03/08 11:39:50;;;;;;;39.10;22.25;;;6.40;99.90;;;;;;5094711;28;20047;-68
2024/03/08 11:42:18;;;;;;;37.38;23.40;;;6.50;99.90;;;;;;5094429;28;20040;-68
2024/03/08 11:44:44;;;;;;;39.95;21.77;;;6.50;99.90;;;;;;5094559;28;20407;-67
2024/03/08 11:47:14;;;;;;;37.17;21.27;;;6.50;99.90;;;;;;5094853;28;20079;-67
2024/03/08 11:49:44;;;;;;;37.15;22.55;;;6.60;99.90;;;;;;5094683;28;20032;-68
2024/03/08 11:52:16;;;;;;;38.08;21.27;;;6.60;99.90;;;;;;5094329;28;20040;-68
2024/03/08 11:54:47;;;;;;;36.38;22.35;;;6.60;99.90;;;;;;5094741;28;20047;-68
2024/03/08 11:57:13;;;;;;;34.50;22.15;;;6.70;99.90;;;;;;5093291;28;20039;-68
2024/03/08 11:59:38;;;;;;;33.97;20.58;;;6.70;99.90;;;;;;5094539;28;20089;-68
2024/03/08 12:02:05;;;;;;;30.35;18.45;;;6.80;99.90;;;;;;5094266;28;20051;-69
2024/03/08 12:04:32;;;;;;;41.60;22.30;;;6.80;99.90;;;;;;5094589;28;20051;-68
2024/03/08 12:07:02;;;;;;;36.28;19.48;;;6.90;99.90;;;;;;5094427;28;20040;-68
2024/03/08 12:09:29;;;;;;;32.65;20.40;;;6.90;99.90;;;;;;5093985;28;20186;-68
2024/03/08 12:11:54;;;;;;;34.03;21.00;;;7.00;99.90;;;;;;5092641;28;20035;-68
2024/03/08 12:14:20;;;;;;;36.67;21.92;;;7.10;99.90;;;;;;5094507;28;20514;-68
2024/03/08 12:16:48;;;;;;;31.15;21.23;;;7.10;99.90;;;;;;5094710;28;20114;-68
2024/03/08 12:19:15;;;;;;;33.47;20.10;;;7.10;99.90;;;;;;5093796;28;20048;-68
2024/03/08 12:21:48;;;;;;;35.17;21.42;;;7.10;99.90;;;;;;5093568;28;20043;-68
2024/03/08 12:24:16;;;;;;;36.03;20.60;;;7.20;99.90;;;;;;5094530;28;20032;-68
2024/03/08 12:26:42;;;;;;;33.88;20.33;;;7.30;99.90;;;;;;5094096;28;20381;-68
2024/03/08 12:29:27;;;;;;;39.60;22.60;;;7.30;99.90;;;;;;5093753;28;20038;-68
2024/03/08 12:31:55;;;;;;;33.05;21.20;;;7.40;99.90;;;;;;5090596;28;20500;-68
2024/03/08 12:34:21;;;;;;;35.38;22.67;;;7.40;99.90;;;;;;5083269;28;20032;-68
2024/03/08 12:36:48;;;;;;;33.80;20.80;;;7.60;99.90;;;;;;5081622;28;20036;-68
2024/03/08 12:39:22;;;;;;;34.15;19.48;;;7.70;99.90;;;;;;5089545;28;20427;-68
2024/03/08 12:41:48;;;;;;;33.40;21.83;;;7.60;99.90;;;;;;5092260;28;20040;-68
2024/03/08 12:44:14;;;;;;;35.15;20.92;;;7.60;99.90;;;;;;5093731;28;20115;-68